Time;durP1;ratioP1;P1;durP2;ratioP2;P2;SDS_P1;SDS_P2;PMS_P1;PMS_P2;Temp;Humidity;BMP_temperature;BMP_pressure;BME280_temperature;BME280_humidity;BME280_pressure;Samples;Min_cycle;Max_cycle;Signal;HPM_P1;HPM_P2
2023/10/13 00:00:29;;;;;;;19.85;11.57;;;11.60;99.90;;;;;;4955686;29;20023;-94
2023/10/13 00:03:01;;;;;;;24.42;11.70;;;11.60;99.90;;;;;;4955151;29;20043;-94
2023/10/13 00:05:31;;;;;;;25.40;11.07;;;11.60;99.90;;;;;;4956819;29;20114;-94
2023/10/13 00:08:00;;;;;;;17.73;10.20;;;11.60;99.90;;;;;;4957833;29;20027;-94
2023/10/13 00:10:30;;;;;;;17.58;10.00;;;11.60;99.90;;;;;;4955427;29;20030;-93
2023/10/13 00:13:06;;;;;;;18.38;9.88;;;11.60;99.90;;;;;;4955010;29;20038;-94
2023/10/13 00:15:40;;;;;;;18.88;9.80;;;11.60;99.90;;;;;;4956326;28;20042;-94
2023/10/13 00:18:12;;;;;;;22.00;9.93;;;11.70;99.90;;;;;;4956347;28;20031;-94
2023/10/13 00:20:49;;;;;;;20.50;9.23;;;11.70;99.90;;;;;;4955454;29;20031;-94
2023/10/13 00:23:20;;;;;;;17.05;8.82;;;11.70;99.90;;;;;;4955144;29;20046;-94
2023/10/13 00:25:50;;;;;;;17.75;9.50;;;11.70;99.90;;;;;;4960468;28;20030;-93
2023/10/13 00:28:23;;;;;;;17.17;9.38;;;11.70;99.90;;;;;;4969898;29;20102;-93
2023/10/13 00:30:52;;;;;;;18.17;8.80;;;11.70;99.90;;;;;;4972395;29;20657;-94
2023/10/13 00:33:22;;;;;;;19.10;8.60;;;11.70;99.90;;;;;;4976173;29;20032;-93
2023/10/13 00:35:51;;;;;;;16.08;8.63;;;11.70;99.90;;;;;;4965459;29;20027;-93
2023/10/13 00:38:18;;;;;;;15.20;8.60;;;11.70;99.90;;;;;;4959482;29;20121;-93
2023/10/13 00:40:51;;;;;;;15.05;8.23;;;11.70;99.90;;;;;;4958394;29;20118;-92
2023/10/13 00:45:55;;;;;;;13.93;7.70;;;11.70;99.90;;;;;;4959354;28;20488;-93
2023/10/13 00:48:38;;;;;;;11.80;7.25;;;11.70;99.90;;;;;;4956434;29;20058;-93
2023/10/13 00:51:17;;;;;;;12.07;7.38;;;11.70;99.90;;;;;;4956101;29;20038;-93
2023/10/13 00:53:44;;;;;;;16.17;8.13;;;11.70;99.90;;;;;;4955963;29;20477;-93
2023/10/13 00:56:21;;;;;;;11.98;7.10;;;11.70;99.90;;;;;;4957006;28;20031;-93
2023/10/13 00:58:46;;;;;;;14.93;7.32;;;11.70;99.90;;;;;;4955867;29;20019;-93
2023/10/13 01:01:21;;;;;;;13.10;7.28;;;11.70;99.90;;;;;;4957166;29;20031;-93
2023/10/13 01:04:02;;;;;;;12.10;6.78;;;11.70;99.90;;;;;;4955782;29;20589;-93
2023/10/13 01:06:29;;;;;;;14.77;6.85;;;11.70;99.90;;;;;;4955803;29;20070;-93
2023/10/13 01:11:44;;;;;;;13.55;6.97;;;11.70;99.90;;;;;;4957144;28;20039;-95
2023/10/13 01:14:12;;;;;;;9.95;5.53;;;11.70;99.90;;;;;;4955936;29;20030;-95
2023/10/13 01:16:43;;;;;;;8.50;5.35;;;11.70;99.90;;;;;;4955283;29;20023;-94
2023/10/13 01:19:24;;;;;;;8.18;5.55;;;11.70;99.90;;;;;;4955488;29;20031;-93
2023/10/13 01:21:56;;;;;;;10.43;5.93;;;11.70;99.90;;;;;;4956645;28;20023;-93
2023/10/13 01:24:24;;;;;;;12.45;5.70;;;11.70;99.90;;;;;;4955297;29;20031;-94
2023/10/13 01:26:52;;;;;;;11.35;5.80;;;11.70;99.90;;;;;;4954991;29;20023;-95
2023/10/13 01:29:19;;;;;;;9.35;5.28;;;11.70;99.90;;;;;;4954980;29;20031;-95
2023/10/13 01:31:45;;;;;;;9.60;4.95;;;11.80;99.90;;;;;;4954360;29;20031;-94
2023/10/13 01:34:21;;;;;;;7.72;4.38;;;11.80;99.90;;;;;;4954046;29;20028;-94
2023/10/13 01:36:51;;;;;;;8.27;4.57;;;11.80;99.90;;;;;;4954427;29;20484;-95
2023/10/13 01:39:26;;;;;;;10.00;4.80;;;11.80;99.90;;;;;;4956578;28;20027;-95
2023/10/13 01:41:55;;;;;;;5.00;3.45;;;11.90;99.90;;;;;;4956303;28;20275;-95
2023/10/13 01:44:26;;;;;;;7.22;4.63;;;11.90;99.90;;;;;;4957846;29;20027;-93
2023/10/13 01:46:52;;;;;;;7.93;4.18;;;11.90;99.90;;;;;;4958884;28;20078;-94
2023/10/13 01:49:17;;;;;;;6.07;3.63;;;11.90;99.90;;;;;;4957626;29;20485;-93
2023/10/13 01:51:47;;;;;;;6.38;3.70;;;11.90;99.90;;;;;;4956889;29;20024;-94
2023/10/13 01:54:13;;;;;;;8.82;4.07;;;11.90;99.90;;;;;;4956734;29;20031;-95
2023/10/13 01:56:45;;;;;;;9.80;5.35;;;11.90;99.90;;;;;;4957582;29;20029;-94
2023/10/13 01:59:11;;;;;;;17.48;7.93;;;11.90;99.90;;;;;;4957430;29;20023;-94
2023/10/13 02:01:38;;;;;;;14.63;6.70;;;11.90;99.90;;;;;;4957845;29;20385;-93
2023/10/13 02:04:04;;;;;;;16.65;7.65;;;11.90;99.90;;;;;;4957129;29;20049;-93
2023/10/13 02:06:33;;;;;;;16.23;7.55;;;11.90;99.90;;;;;;4957140;29;20446;-93
2023/10/13 02:09:12;;;;;;;17.83;8.55;;;11.90;99.90;;;;;;4957236;29;20057;-93
2023/10/13 02:11:49;;;;;;;13.80;7.65;;;11.90;99.90;;;;;;4957454;29;20131;-93
2023/10/13 02:14:18;;;;;;;13.93;7.03;;;11.80;99.90;;;;;;4957206;29;20031;-93
2023/10/13 02:16:46;;;;;;;17.00;8.52;;;11.80;99.90;;;;;;4957087;29;20035;-92
2023/10/13 02:19:15;;;;;;;15.52;8.45;;;11.80;99.90;;;;;;4958130;28;20031;-92
2023/10/13 02:21:43;;;;;;;15.15;8.45;;;11.80;99.90;;;;;;4956999;29;20034;-93
2023/10/13 02:24:18;;;;;;;14.45;7.95;;;11.80;99.90;;;;;;4956968;29;20039;-91
2023/10/13 02:26:47;;;;;;;13.40;7.72;;;11.80;99.90;;;;;;4960802;29;20034;-93
2023/10/13 02:29:13;;;;;;;14.48;8.00;;;11.80;99.90;;;;;;4957853;29;20046;-91
2023/10/13 02:31:42;;;;;;;18.42;8.82;;;11.70;99.90;;;;;;4957708;28;20023;-92
2023/10/13 02:34:08;;;;;;;14.25;7.53;;;11.70;99.90;;;;;;4958384;28;20027;-94
2023/10/13 02:36:48;;;;;;;17.45;7.68;;;11.70;99.90;;;;;;4957131;29;20511;-92
2023/10/13 02:39:25;;;;;;;11.70;6.50;;;11.70;99.90;;;;;;4958127;28;20039;-91
2023/10/13 02:41:51;;;;;;;8.48;4.45;;;11.70;99.90;;;;;;4958208;28;20027;-93
2023/10/13 02:44:26;;;;;;;6.80;3.92;;;11.70;99.90;;;;;;4958240;28;20029;-93
2023/10/13 02:46:55;;;;;;;5.85;3.33;;;11.70;99.90;;;;;;4958449;28;20054;-93
2023/10/13 02:49:21;;;;;;;5.55;2.55;;;11.70;99.90;;;;;;4956080;28;20023;-92
2023/10/13 02:51:47;;;;;;;4.35;2.80;;;11.70;99.90;;;;;;4957558;28;20027;-94
2023/10/13 02:54:18;;;;;;;4.93;2.55;;;11.70;99.90;;;;;;4956437;29;20026;-93
2023/10/13 02:57:05;;;;;;;4.82;2.45;;;11.70;99.90;;;;;;4956546;29;20082;-92
2023/10/13 02:59:34;;;;;;;3.88;2.40;;;11.70;99.90;;;;;;4957209;28;20039;-94
2023/10/13 03:02:27;;;;;;;10.05;5.63;;;11.70;99.90;;;;;;4956580;29;20034;-93
2023/10/13 03:04:59;;;;;;;11.68;6.10;;;11.70;99.90;;;;;;4957333;28;20035;-93
2023/10/13 03:07:28;;;;;;;14.27;7.60;;;11.70;99.90;;;;;;4956623;29;20024;-92
2023/10/13 03:10:09;;;;;;;15.60;7.10;;;11.70;99.90;;;;;;4962446;29;20094;-93
2023/10/13 03:12:36;;;;;;;18.98;6.55;;;11.70;99.90;;;;;;4965171;29;20098;-92
2023/10/13 03:15:28;;;;;;;13.80;6.43;;;11.70;99.90;;;;;;4965746;29;20023;-92
2023/10/13 03:17:54;;;;;;;11.85;6.28;;;11.70;99.90;;;;;;4966693;28;20031;-94
2023/10/13 03:20:33;;;;;;;31.23;7.15;;;11.60;99.90;;;;;;4964134;29;20062;-94
2023/10/13 03:22:59;;;;;;;12.10;6.70;;;11.60;99.90;;;;;;4961727;29;20035;-93
2023/10/13 03:30:30;;;;;;;13.95;6.55;;;11.60;99.90;;;;;;4957564;28;20046;-93
2023/10/13 03:32:56;;;;;;;10.50;6.05;;;11.60;99.90;;;;;;4957189;28;20019;-93
2023/10/13 03:35:25;;;;;;;12.13;5.78;;;11.60;99.90;;;;;;4957085;28;20126;-94
2023/10/13 03:37:51;;;;;;;10.38;5.57;;;11.60;99.90;;;;;;4956162;29;20038;-94
2023/10/13 03:43:11;;;;;;;10.98;5.22;;;11.70;99.90;;;;;;4957002;28;20034;-91
2023/10/13 03:45:42;;;;;;;10.88;4.78;;;11.60;99.90;;;;;;4956340;29;20118;-93
2023/10/13 03:48:09;;;;;;;8.55;4.50;;;11.60;99.90;;;;;;4955654;29;20074;-94
2023/10/13 03:50:55;;;;;;;10.75;5.70;;;11.70;99.90;;;;;;4956718;28;20035;-94
2023/10/13 03:53:25;;;;;;;8.05;4.60;;;11.70;99.90;;;;;;4955842;29;20046;-94
2023/10/13 03:56:07;;;;;;;8.80;4.40;;;11.70;99.90;;;;;;4956690;28;20019;-92
2023/10/13 03:58:45;;;;;;;7.57;3.97;;;11.70;99.90;;;;;;4956741;28;20055;-93
2023/10/13 04:01:15;;;;;;;8.00;4.10;;;11.70;99.90;;;;;;4955837;28;20408;-94
2023/10/13 04:09:51;;;;;;;6.78;3.75;;;11.60;99.90;;;;;;4956335;29;20050;-93
2023/10/13 04:17:22;;;;;;;5.70;3.65;;;11.70;99.90;;;;;;4956364;29;20035;-93
2023/10/13 04:39:35;;;;;;;6.40;2.90;;;11.60;99.90;;;;;;4956372;28;20429;-91
2023/10/13 04:41:41;;;;;;;6.97;3.25;;;11.60;99.90;;;;;;4949014;29;20668;-95
2023/10/13 04:55:09;;;;;;;5.40;2.90;;;11.60;99.90;;;;;;4955637;28;20114;-93
2023/10/13 04:57:32;;;;;;;5.50;3.10;;;11.60;99.90;;;;;;4955105;29;20097;-93
2023/10/13 05:51:32;;;;;;;5.40;2.67;;;11.70;99.90;;;;;;4958749;28;20461;-91
2023/10/13 06:29:38;;;;;;;5.03;2.60;;;11.80;99.90;;;;;;4954766;29;20397;-95
2023/10/13 06:32:10;;;;;;;4.80;2.95;;;11.80;99.90;;;;;;4958520;29;20024;-95
2023/10/13 06:34:45;;;;;;;6.47;3.53;;;11.80;99.90;;;;;;4953984;29;20030;-94
2023/10/13 06:37:30;;;;;;;6.80;3.13;;;11.80;99.90;;;;;;4954394;29;20054;-93
2023/10/13 06:39:59;;;;;;;3.67;2.55;;;11.80;99.90;;;;;;4954040;29;20031;-93
2023/10/13 06:42:28;;;;;;;4.78;2.90;;;11.80;99.90;;;;;;4956436;29;20114;-94
2023/10/13 06:44:54;;;;;;;3.90;2.40;;;11.80;99.90;;;;;;4956446;29;20054;-95
2023/10/13 06:47:21;;;;;;;6.82;3.08;;;11.80;99.90;;;;;;4957127;29;20045;-94
2023/10/13 06:49:51;;;;;;;5.53;2.40;;;11.80;99.90;;;;;;4957719;29;20043;-95
2023/10/13 06:52:17;;;;;;;4.93;2.47;;;11.80;99.90;;;;;;4956288;29;20492;-93
2023/10/13 06:54:43;;;;;;;6.90;2.58;;;11.80;99.90;;;;;;4950118;28;20067;-93
2023/10/13 06:57:33;;;;;;;5.50;2.47;;;11.80;99.90;;;;;;4962530;28;20045;-94
2023/10/13 06:59:56;;;;;;;6.13;2.60;;;11.80;99.90;;;;;;4953100;29;20078;-91
2023/10/13 07:02:21;;;;;;;3.95;2.63;;;11.80;99.90;;;;;;4962773;28;20035;-90
2023/10/13 07:04:56;;;;;;;6.20;2.42;;;11.80;99.90;;;;;;4961072;29;20119;-90
2023/10/13 07:07:23;;;;;;;5.57;3.15;;;11.90;99.90;;;;;;4956414;29;20031;-92
2023/10/13 07:09:55;;;;;;;4.40;2.22;;;11.90;99.90;;;;;;4957657;29;20023;-92
2023/10/13 07:12:33;;;;;;;2.50;1.60;;;11.90;99.90;;;;;;4957971;29;20062;-91
2023/10/13 07:15:19;;;;;;;3.38;1.95;;;11.90;99.90;;;;;;4969574;29;20055;-93
2023/10/13 07:17:46;;;;;;;4.53;2.22;;;11.90;99.90;;;;;;4969477;28;20115;-92
2023/10/13 07:20:16;;;;;;;7.07;2.60;;;11.90;99.90;;;;;;4966481;28;20083;-92
2023/10/13 07:22:54;;;;;;;4.57;2.47;;;11.90;99.90;;;;;;4960768;29;20035;-91
2023/10/13 07:25:25;;;;;;;4.65;2.35;;;12.00;99.90;;;;;;4962676;29;20031;-92
2023/10/13 07:27:53;;;;;;;2.85;1.70;;;12.00;99.90;;;;;;4960729;29;20402;-91
2023/10/13 07:30:26;;;;;;;3.03;1.42;;;12.00;99.90;;;;;;4960873;29;20036;-90
2023/10/13 07:32:51;;;;;;;3.38;1.83;;;12.00;99.90;;;;;;4963363;28;20031;-90
2023/10/13 07:35:20;;;;;;;2.47;1.85;;;12.00;99.90;;;;;;4960052;28;20547;-91
2023/10/13 07:37:52;;;;;;;2.80;1.63;;;12.00;99.90;;;;;;4960844;28;20027;-92
2023/10/13 07:43:10;;;;;;;4.00;1.80;;;12.10;99.90;;;;;;4960828;28;20046;-91
2023/10/13 07:45:40;;;;;;;3.15;1.70;;;12.10;99.90;;;;;;4956795;29;20042;-90
2023/10/13 07:48:20;;;;;;;3.53;1.98;;;12.10;99.90;;;;;;4947122;29;20047;-93
2023/10/13 07:51:03;;;;;;;4.20;2.40;;;12.20;99.90;;;;;;4951961;29;20047;-91
2023/10/13 07:53:34;;;;;;;6.25;2.63;;;12.20;99.90;;;;;;4953679;29;20023;-92
2023/10/13 07:56:04;;;;;;;3.92;2.03;;;12.20;99.90;;;;;;4954749;29;20380;-91
2023/10/13 07:58:33;;;;;;;5.72;1.88;;;12.30;99.90;;;;;;4954991;29;20499;-92
2023/10/13 08:08:40;;;;;;;3.42;1.35;;;12.40;99.90;;;;;;4955809;28;20106;-92
2023/10/13 08:14:00;;;;;;;1.10;0.82;;;12.50;99.90;;;;;;4955771;29;20381;-93
2023/10/13 08:16:45;;;;;;;1.25;0.90;;;12.50;99.90;;;;;;4953476;29;20494;-93
2023/10/13 08:19:18;;;;;;;1.02;0.68;;;12.60;99.90;;;;;;4954453;29;20035;-93
2023/10/13 08:22:23;;;;;;;1.38;0.90;;;12.70;99.90;;;;;;4952629;29;20144;-93
2023/10/13 08:27:34;;;;;;;0.65;0.60;;;12.90;99.90;;;;;;4955102;28;20050;-92
2023/10/13 08:45:52;;;;;;;2.10;1.13;;;13.20;99.90;;;;;;4952745;28;20127;-93
2023/10/13 08:48:14;;;;;;;0.63;0.50;;;13.20;99.90;;;;;;4955686;28;20449;-94
2023/10/13 08:53:31;;;;;;;0.70;0.40;;;13.30;99.90;;;;;;4962057;28;20029;-94
2023/10/13 08:56:15;;;;;;;1.10;0.70;;;13.30;99.90;;;;;;4957328;29;20023;-95
2023/10/13 09:06:57;;;;;;;2.33;0.90;;;13.50;99.90;;;;;;4955307;29;20027;-95
2023/10/13 09:09:26;;;;;;;3.08;0.82;;;13.70;99.90;;;;;;4955634;29;20058;-93
2023/10/13 09:12:08;;;;;;;1.10;0.60;;;13.70;99.90;;;;;;4955294;29;20035;-94
2023/10/13 09:14:39;;;;;;;0.93;0.80;;;13.80;99.90;;;;;;4955944;29;20032;-94
2023/10/13 09:19:55;;;;;;;2.03;1.50;;;13.90;99.90;;;;;;4953375;29;20042;-93
2023/10/13 09:22:36;;;;;;;4.13;3.03;;;13.90;99.90;;;;;;4968413;28;20565;-92
2023/10/13 09:25:04;;;;;;;2.58;2.00;;;13.90;99.90;;;;;;4959377;29;20026;-93
2023/10/13 09:27:37;;;;;;;4.50;2.42;;;13.90;99.90;;;;;;4973107;28;20042;-94
2023/10/13 09:30:23;;;;;;;2.13;1.70;;;14.00;99.90;;;;;;4967619;29;20042;-94
2023/10/13 09:33:08;;;;;;;1.98;1.30;;;14.00;99.90;;;;;;4962678;29;20038;-94
2023/10/13 09:35:36;;;;;;;1.40;1.20;;;14.10;99.90;;;;;;4958019;28;20504;-94
2023/10/13 09:38:03;;;;;;;1.23;1.02;;;14.10;99.90;;;;;;4958613;28;20055;-92
2023/10/13 09:43:07;;;;;;;4.43;1.63;;;14.10;99.90;;;;;;4943193;29;20040;-94
2023/10/13 09:45:40;;;;;;;1.73;1.20;;;14.20;99.90;;;;;;4942119;29;20370;-92
2023/10/13 09:48:21;;;;;;;2.65;1.60;;;14.20;99.90;;;;;;4945865;29;20051;-95
2023/10/13 09:50:48;;;;;;;2.88;2.03;;;14.20;99.90;;;;;;4936511;29;20034;-93
2023/10/13 09:53:18;;;;;;;3.90;2.70;;;14.20;99.90;;;;;;4935975;29;20032;-91
2023/10/13 09:55:50;;;;;;;4.32;2.53;;;14.20;99.90;;;;;;4946761;29;20062;-92
2023/10/13 09:58:17;;;;;;;5.10;2.67;;;14.20;99.90;;;;;;4952171;28;20122;-92
2023/10/13 10:01:20;;;;;;;3.00;2.15;;;14.20;99.90;;;;;;4957278;29;20027;-93
2023/10/13 10:04:07;;;;;;;2.97;1.92;;;14.20;99.90;;;;;;4944444;29;20056;-93
2023/10/13 10:06:39;;;;;;;2.42;1.60;;;14.20;99.90;;;;;;4937962;29;20055;-90
2023/10/13 10:09:11;;;;;;;3.03;1.88;;;14.10;99.90;;;;;;4954742;29;20039;-93
2023/10/13 10:12:13;;;;;;;2.08;1.67;;;14.10;99.90;;;;;;4957518;29;20034;-94
2023/10/13 10:15:28;;;;;;;3.35;1.50;;;14.10;99.90;;;;;;4956289;29;20031;-93
2023/10/13 10:17:54;;;;;;;1.75;1.52;;;14.10;99.90;;;;;;4948160;29;20127;-94
2023/10/13 10:20:39;;;;;;;1.90;1.27;;;14.10;99.90;;;;;;4937804;29;20031;-94
2023/10/13 10:23:05;;;;;;;2.17;0.90;;;14.00;99.90;;;;;;4937856;29;20095;-93
2023/10/13 10:25:35;;;;;;;0.93;0.85;;;14.00;99.90;;;;;;4938273;29;20434;-93
2023/10/13 10:28:05;;;;;;;1.30;0.95;;;14.00;99.90;;;;;;4938886;29;20039;-94
2023/10/13 10:30:35;;;;;;;;;;;14.00;99.90;;;;;;4938311;29;20382;-91
2023/10/13 10:33:07;;;;;;;1.83;1.48;;;14.00;99.90;;;;;;4949176;29;19918;-93
2023/10/13 10:35:33;;;;;;;2.03;1.70;;;14.00;99.90;;;;;;4938332;29;20094;-93
2023/10/13 10:40:57;;;;;;;2.05;1.10;;;14.10;99.90;;;;;;4958534;29;20355;-91
2023/10/13 10:43:47;;;;;;;2.47;1.20;;;14.10;99.90;;;;;;4939118;29;20043;-92
2023/10/13 10:46:27;;;;;;;1.15;0.60;;;14.00;99.90;;;;;;4938200;29;20624;-89
2023/10/13 10:49:00;;;;;;;1.60;0.68;;;14.00;99.90;;;;;;4947040;29;20058;-88
2023/10/13 10:51:31;;;;;;;0.50;0.40;;;14.00;99.90;;;;;;4955282;29;20027;-93
2023/10/13 10:53:57;;;;;;;1.27;0.57;;;14.00;99.90;;;;;;4944241;28;20118;-91
2023/10/13 10:56:37;;;;;;;1.10;0.90;;;13.90;99.90;;;;;;4955309;28;20038;-88
2023/10/13 10:59:04;;;;;;;0.65;0.57;;;13.90;99.90;;;;;;4952877;29;20032;-93
2023/10/13 11:01:38;;;;;;;4.22;0.63;;;13.90;99.90;;;;;;4956409;29;20453;-93
2023/10/13 11:04:08;;;;;;;1.83;0.65;;;13.90;99.90;;;;;;4943497;29;20051;-92
2023/10/13 11:06:46;;;;;;;0.40;0.40;;;14.00;99.90;;;;;;4945741;29;20548;-95
2023/10/13 11:10:20;;;;;;;0.50;0.50;;;14.10;99.90;;;;;;4948597;29;20046;-94
2023/10/13 11:12:13;;;;;;;0.35;0.32;;;14.30;99.90;;;;;;4943571;29;20545;-93
2023/10/13 11:14:39;;;;;;;2.20;0.70;;;14.60;99.90;;;;;;4945638;29;20034;-92
2023/10/13 11:17:13;;;;;;;1.85;0.45;;;14.70;99.90;;;;;;4936326;29;20028;-94
2023/10/13 11:19:40;;;;;;;0.30;0.30;;;14.80;99.90;;;;;;4946881;29;20031;-92
2023/10/13 11:22:29;;;;;;;0.50;0.40;;;14.70;99.90;;;;;;4954824;29;20031;-93
2023/10/13 11:25:09;;;;;;;1.27;0.70;;;14.70;99.90;;;;;;4944211;29;20124;-92
2023/10/13 11:30:20;;;;;;;1.35;1.02;;;14.50;99.90;;;;;;4942962;29;20042;-95
2023/10/13 11:33:08;;;;;;;1.00;0.77;;;14.40;99.90;;;;;;4950648;29;20027;-94
2023/10/13 11:38:27;;;;;;;1.10;0.90;;;14.20;99.90;;;;;;4940433;29;20122;-94
2023/10/13 11:46:16;;;;;;;1.70;1.20;;;14.00;99.90;;;;;;4941700;29;20082;-93
2023/10/13 11:48:43;;;;;;;2.05;1.38;;;13.90;99.90;;;;;;4944178;28;20047;-92
2023/10/13 11:51:32;;;;;;;1.95;1.45;;;13.90;99.90;;;;;;4956112;29;20030;-92
2023/10/13 11:53:58;;;;;;;1.92;1.30;;;13.80;99.90;;;;;;4950759;28;20065;-93
2023/10/13 11:56:24;;;;;;;1.40;1.30;;;13.70;99.90;;;;;;4955463;29;20035;-93
2023/10/13 11:58:50;;;;;;;1.83;0.82;;;13.70;99.90;;;;;;4952499;29;20481;-92
2023/10/13 12:01:20;;;;;;;1.13;1.02;;;13.50;99.90;;;;;;4953886;29;20046;-93
2023/10/13 12:11:45;;;;;;;0.28;0.28;;;13.10;99.90;;;;;;4952888;28;20068;-93
2023/10/13 12:17:03;;;;;;;0.63;0.22;;;12.90;99.90;;;;;;4955979;29;20082;-93
2023/10/13 12:19:29;;;;;;;0.70;0.40;;;12.90;99.90;;;;;;4951317;29;20130;-92
2023/10/13 12:21:56;;;;;;;0.40;0.20;;;12.80;99.90;;;;;;4954345;28;20094;-93
2023/10/13 12:24:39;;;;;;;0.38;0.30;;;12.80;99.90;;;;;;4953563;29;20043;-92
2023/10/13 12:27:19;;;;;;;0.70;0.43;;;12.80;99.90;;;;;;4955766;29;20035;-93
2023/10/13 12:29:48;;;;;;;1.10;0.40;;;12.80;99.90;;;;;;4942086;29;20400;-93
2023/10/13 12:32:20;;;;;;;0.37;0.20;;;12.80;99.90;;;;;;4955477;28;20031;-93
2023/10/13 12:34:57;;;;;;;0.45;0.40;;;12.80;99.90;;;;;;4952073;29;20333;-90
2023/10/13 12:53:55;;;;;;;3.53;0.80;;;12.60;99.90;;;;;;4954530;29;20607;-91
2023/10/13 12:56:28;;;;;;;3.88;0.77;;;12.60;99.90;;;;;;4957833;29;20058;-91
2023/10/13 12:58:54;;;;;;;1.73;0.65;;;12.50;99.90;;;;;;4949570;29;20035;-93
2023/10/13 13:01:20;;;;;;;0.75;0.50;;;12.30;99.90;;;;;;4952703;29;20019;-92
2023/10/13 13:03:50;;;;;;;1.75;0.50;;;12.20;99.90;;;;;;4951929;28;20066;-94
2023/10/13 13:06:17;;;;;;;3.47;0.50;;;12.10;99.90;;;;;;4951666;29;20058;-91
2023/10/13 13:08:44;;;;;;;2.72;0.47;;;12.00;99.90;;;;;;4952950;29;20516;-92
2023/10/13 13:11:11;;;;;;;3.35;0.95;;;11.80;99.90;;;;;;4953675;29;20023;-93
2023/10/13 13:13:37;;;;;;;3.42;0.60;;;11.70;99.90;;;;;;4953331;29;20106;-93
2023/10/13 13:16:03;;;;;;;1.92;0.65;;;11.60;99.90;;;;;;4953861;29;20030;-93
2023/10/13 13:18:29;;;;;;;2.38;0.60;;;11.60;99.90;;;;;;4953533;29;20027;-93
2023/10/13 13:20:55;;;;;;;2.90;0.50;;;11.50;99.90;;;;;;4951011;29;20504;-93
2023/10/13 13:23:25;;;;;;;1.55;0.80;;;11.50;99.90;;;;;;4953771;29;20031;-93
2023/10/13 13:25:52;;;;;;;2.30;0.70;;;11.40;99.90;;;;;;4951147;29;20024;-92
2023/10/13 13:28:18;;;;;;;1.50;1.17;;;11.30;99.90;;;;;;4953412;29;20031;-94
2023/10/13 13:30:44;;;;;;;6.20;2.08;;;11.30;99.90;;;;;;4951989;29;20019;-91
2023/10/13 13:33:12;;;;;;;1.63;0.90;;;11.30;99.90;;;;;;4954482;28;20035;-91
2023/10/13 13:35:44;;;;;;;3.72;1.20;;;11.30;99.90;;;;;;4956528;29;20027;-94
2023/10/13 13:38:10;;;;;;;4.20;0.60;;;11.30;99.90;;;;;;4957082;29;20031;-91
2023/10/13 13:40:39;;;;;;;4.00;0.65;;;11.30;99.90;;;;;;4958667;28;20393;-92
2023/10/13 13:43:17;;;;;;;4.38;0.80;;;11.30;99.90;;;;;;4955133;29;20511;-94
2023/10/13 13:45:45;;;;;;;2.63;1.00;;;11.30;99.90;;;;;;4955169;29;20118;-93
2023/10/13 13:48:15;;;;;;;3.42;1.30;;;11.30;99.90;;;;;;4957128;29;20043;-92
2023/10/13 13:50:41;;;;;;;6.95;1.00;;;11.30;99.90;;;;;;4953730;29;20038;-93
2023/10/13 13:53:09;;;;;;;4.47;1.20;;;11.20;99.90;;;;;;4958092;29;20481;-92
2023/10/13 13:55:35;;;;;;;5.32;1.35;;;11.20;99.90;;;;;;4957975;29;20646;-92
2023/10/13 13:58:04;;;;;;;4.03;1.30;;;11.20;99.90;;;;;;4958561;29;20035;-92
2023/10/13 14:00:46;;;;;;;6.03;1.40;;;11.20;99.90;;;;;;4959572;29;20035;-93
2023/10/13 14:06:16;;;;;;;4.90;1.52;;;11.20;99.90;;;;;;4892964;29;20056;-91
2023/10/13 14:08:44;;;;;;;3.17;1.17;;;11.20;99.90;;;;;;4898963;29;20431;-92
2023/10/13 14:11:13;;;;;;;5.30;1.20;;;11.20;99.90;;;;;;4883056;29;20103;-93
2023/10/13 14:13:48;;;;;;;2.67;1.52;;;11.20;99.90;;;;;;4896918;29;20111;-93
2023/10/13 14:16:20;;;;;;;1.90;0.75;;;11.20;99.90;;;;;;4897739;29;20042;-93
2023/10/13 14:18:47;;;;;;;4.00;1.00;;;11.20;99.90;;;;;;4882859;29;20032;-93
2023/10/13 14:21:19;;;;;;;3.55;0.65;;;11.20;99.90;;;;;;4898382;29;20473;-93
2023/10/13 14:23:46;;;;;;;1.83;0.73;;;11.20;99.90;;;;;;4883586;29;20064;-92
2023/10/13 14:26:13;;;;;;;10.52;1.20;;;11.20;99.90;;;;;;4898181;29;20104;-90
2023/10/13 14:28:50;;;;;;;6.28;1.67;;;11.20;99.90;;;;;;4883227;29;20441;-94
2023/10/13 14:31:16;;;;;;;7.95;1.35;;;11.20;99.90;;;;;;4884078;29;20482;-94
2023/10/13 14:33:42;;;;;;;6.82;1.38;;;11.10;99.90;;;;;;4883052;29;20031;-92
2023/10/13 14:36:10;;;;;;;7.93;1.80;;;11.10;99.90;;;;;;4898477;29;20028;-92
2023/10/13 14:38:36;;;;;;;9.90;1.63;;;11.10;99.90;;;;;;4888147;29;20028;-92
2023/10/13 14:41:01;;;;;;;7.53;1.15;;;11.10;99.90;;;;;;4918516;29;20035;-92
2023/10/13 14:43:27;;;;;;;2.75;0.75;;;11.10;99.90;;;;;;4964324;29;20098;-92
2023/10/13 14:45:56;;;;;;;12.73;1.73;;;11.10;99.90;;;;;;4960918;28;20023;-92
2023/10/13 14:48:24;;;;;;;12.88;2.13;;;11.20;99.90;;;;;;4960968;29;20050;-92
2023/10/13 14:50:49;;;;;;;13.73;2.67;;;11.10;99.90;;;;;;4960486;29;20568;-93
2023/10/13 14:53:19;;;;;;;11.30;2.70;;;11.20;99.90;;;;;;4960482;29;20107;-92
2023/10/13 14:55:45;;;;;;;6.60;1.60;;;11.20;99.90;;;;;;4958973;28;20024;-93
2023/10/13 14:58:15;;;;;;;12.98;1.85;;;11.20;99.90;;;;;;4958338;28;20015;-92
2023/10/13 15:00:45;;;;;;;7.78;1.77;;;11.20;99.90;;;;;;4957569;29;20027;-92
2023/10/13 15:03:11;;;;;;;7.95;1.80;;;11.30;99.90;;;;;;4954745;29;20035;-92
2023/10/13 15:05:43;;;;;;;11.38;2.08;;;11.30;99.90;;;;;;4958003;29;20213;-92
2023/10/13 15:08:09;;;;;;;13.45;1.70;;;11.30;99.90;;;;;;4951856;29;20114;-91
2023/10/13 15:10:36;;;;;;;13.63;2.05;;;11.30;99.90;;;;;;4971219;28;20069;-92
2023/10/13 15:13:05;;;;;;;13.65;1.92;;;11.30;99.90;;;;;;4955602;29;20028;-92
2023/10/13 15:15:32;;;;;;;12.05;1.77;;;11.30;99.90;;;;;;4955842;29;20042;-91
2023/10/13 15:17:58;;;;;;;17.38;2.15;;;11.20;99.90;;;;;;4956101;28;20560;-91
2023/10/13 15:20:24;;;;;;;13.30;2.33;;;11.20;99.90;;;;;;4955938;28;20028;-90
2023/10/13 15:22:49;;;;;;;14.85;2.88;;;11.20;99.90;;;;;;4956328;28;20050;-93
2023/10/13 15:25:28;;;;;;;19.33;2.67;;;11.20;99.90;;;;;;4955061;29;20023;-92
2023/10/13 15:27:57;;;;;;;17.67;2.65;;;11.10;99.90;;;;;;4955390;29;20035;-92
2023/10/13 15:30:25;;;;;;;17.88;2.90;;;11.10;99.90;;;;;;4956665;28;20023;-93
2023/10/13 15:32:53;;;;;;;14.57;1.92;;;11.10;99.90;;;;;;4955297;29;20442;-93
2023/10/13 15:35:19;;;;;;;13.10;2.17;;;11.10;99.90;;;;;;4956853;29;20032;-93
2023/10/13 15:37:48;;;;;;;11.45;2.42;;;11.20;99.90;;;;;;4955736;29;20119;-92
2023/10/13 15:40:15;;;;;;;11.30;1.92;;;11.20;99.90;;;;;;4954407;29;20031;-93
2023/10/13 15:42:44;;;;;;;10.43;2.28;;;11.30;99.90;;;;;;4955561;29;20035;-91
2023/10/13 15:45:16;;;;;;;17.48;2.78;;;11.30;99.90;;;;;;4956653;28;20381;-92
2023/10/13 15:47:46;;;;;;;16.58;2.28;;;11.30;99.90;;;;;;4956188;28;20045;-91
2023/10/13 15:50:18;;;;;;;15.30;3.75;;;11.40;99.90;;;;;;4953953;29;20035;-91
2023/10/13 15:52:45;;;;;;;11.73;2.22;;;11.40;99.90;;;;;;4970838;28;20050;-91
2023/10/13 15:55:18;;;;;;;19.90;2.78;;;11.30;99.90;;;;;;4954898;29;20114;-91
2023/10/13 15:57:44;;;;;;;15.27;3.10;;;11.30;99.90;;;;;;4955242;28;20167;-93
2023/10/13 16:00:23;;;;;;;12.23;2.28;;;11.20;99.90;;;;;;4952534;28;20039;-93
2023/10/13 16:02:56;;;;;;;11.18;2.10;;;11.20;99.90;;;;;;4955881;28;20031;-92
2023/10/13 16:05:34;;;;;;;8.57;2.58;;;11.10;99.90;;;;;;4952679;29;20493;-92
2023/10/13 16:08:01;;;;;;;12.18;2.00;;;11.10;99.90;;;;;;4955961;29;20023;-91
2023/10/13 16:10:27;;;;;;;12.88;1.98;;;11.10;99.90;;;;;;4953661;29;20027;-94
2023/10/13 16:12:53;;;;;;;12.57;2.53;;;11.20;99.90;;;;;;4959152;29;20031;-92
2023/10/13 16:15:21;;;;;;;13.90;1.90;;;11.30;99.90;;;;;;4967572;29;20027;-94
2023/10/13 16:17:47;;;;;;;13.85;1.75;;;11.30;99.90;;;;;;4972603;28;20048;-93
2023/10/13 16:20:15;;;;;;;11.00;2.05;;;11.40;99.90;;;;;;4970034;29;20023;-91
2023/10/13 16:22:45;;;;;;;12.77;2.00;;;11.40;99.90;;;;;;4972878;28;20083;-93
2023/10/13 16:25:12;;;;;;;11.10;2.00;;;11.60;99.90;;;;;;4968625;28;20039;-94
2023/10/13 16:27:41;;;;;;;13.57;2.03;;;11.80;99.90;;;;;;4959482;29;20282;-94
2023/10/13 16:30:09;;;;;;;16.33;2.08;;;11.70;99.90;;;;;;4960796;28;20031;-93
2023/10/13 16:32:38;;;;;;;15.98;2.78;;;11.70;99.90;;;;;;4962966;29;20082;-93
2023/10/13 16:35:07;;;;;;;12.20;2.70;;;11.80;99.90;;;;;;4963833;29;20038;-93
2023/10/13 16:37:33;;;;;;;8.05;1.98;;;11.90;99.90;;;;;;4959891;29;20015;-94
2023/10/13 16:40:04;;;;;;;11.60;1.90;;;11.80;99.90;;;;;;4965307;29;20027;-94
2023/10/13 16:42:34;;;;;;;13.52;1.70;;;11.60;99.90;;;;;;4961207;29;20023;-92
2023/10/13 16:45:14;;;;;;;8.18;1.83;;;11.50;99.90;;;;;;4959170;29;20032;-92
2023/10/13 16:47:43;;;;;;;14.93;1.65;;;11.30;99.90;;;;;;4958086;29;20433;-93
2023/10/13 16:50:14;;;;;;;19.45;2.40;;;11.10;99.90;;;;;;4961452;29;20050;-95
2023/10/13 16:52:40;;;;;;;;;;;11.10;99.90;;;;;;4957498;29;20027;-92
2023/10/13 16:55:11;;;;;;;11.00;2.00;;;11.00;99.90;;;;;;4956866;28;19913;-95
2023/10/13 16:57:38;;;;;;;10.25;2.17;;;10.90;99.90;;;;;;4960414;29;20050;-93